Time;durP1;ratioP1;P1;durP2;ratioP2;P2;SDS_P1;SDS_P2;PMS_P1;PMS_P2;Temp;Humidity;BMP_temperature;BMP_pressure;BME280_temperature;BME280_humidity;BME280_pressure;Samples;Min_cycle;Max_cycle;Signal;HPM_P1;HPM_P2
2022/02/14 00:00:44;;;;;;;1999.90;999.90;;;7.30;99.90;;;;;;5017211;28;20556;-78
2022/02/14 00:03:13;;;;;;;1999.90;999.90;;;7.30;99.90;;;;;;5017531;28;20450;-78
2022/02/14 00:05:43;;;;;;;1999.90;999.90;;;7.30;99.90;;;;;;5016057;28;20449;-78
2022/02/14 00:08:13;;;;;;;1517.30;413.87;;;7.20;99.90;;;;;;5017345;28;20791;-78
2022/02/14 00:10:41;;;;;;;1999.90;999.90;;;7.30;99.90;;;;;;5017321;28;20880;-78
2022/02/14 00:13:09;;;;;;;1999.90;999.90;;;7.30;99.90;;;;;;5015522;28;20460;-77
2022/02/14 00:15:37;;;;;;;1887.47;695.77;;;7.30;99.90;;;;;;5015282;28;20490;-77
2022/02/14 00:18:06;;;;;;;1999.90;772.60;;;7.30;99.90;;;;;;5015720;28;20458;-78
2022/02/14 00:20:34;;;;;;;1999.90;999.90;;;7.30;99.90;;;;;;5014853;28;20904;-77
2022/02/14 00:23:02;;;;;;;1999.90;717.63;;;7.30;99.90;;;;;;5016830;28;20484;-78
2022/02/14 00:25:32;;;;;;;1450.03;152.53;;;7.30;99.90;;;;;;5016370;28;20455;-77
2022/02/14 00:28:00;;;;;;;1999.90;745.97;;;7.30;99.90;;;;;;5015868;28;20455;-78
2022/02/14 00:30:29;;;;;;;1999.90;999.90;;;7.30;99.90;;;;;;5017118;28;20467;-78
2022/02/14 00:32:57;;;;;;;1999.90;999.90;;;7.30;99.90;;;;;;5016857;28;20556;-78
2022/02/14 00:35:26;;;;;;;1965.03;734.77;;;7.30;99.90;;;;;;5015215;28;20543;-78
2022/02/14 00:37:54;;;;;;;1999.90;750.23;;;7.30;99.90;;;;;;5017097;28;20464;-78
2022/02/14 00:40:22;;;;;;;1999.90;999.90;;;7.30;99.90;;;;;;5015411;28;20476;-78
2022/02/14 00:42:53;;;;;;;1999.90;717.70;;;7.40;99.90;;;;;;5019544;28;20461;-78
2022/02/14 00:45:21;;;;;;;1574.63;129.43;;;7.40;99.90;;;;;;5020826;28;20990;-77
2022/02/14 00:47:49;;;;;;;1999.90;784.00;;;7.40;99.90;;;;;;5018496;28;20463;-78
2022/02/14 00:50:17;;;;;;;1728.93;692.93;;;7.40;99.90;;;;;;5018517;28;20526;-78
2022/02/14 00:52:46;;;;;;;1414.50;409.60;;;7.40;99.90;;;;;;5018924;28;20516;-78
2022/02/14 00:55:16;;;;;;;1807.37;136.03;;;7.40;99.90;;;;;;5018805;28;20446;-78
2022/02/14 00:57:45;;;;;;;1999.90;999.90;;;7.40;99.90;;;;;;5019185;28;21013;-77
2022/02/14 01:00:16;;;;;;;1354.80;155.10;;;7.40;99.90;;;;;;5019360;28;20833;-78
2022/02/14 01:02:46;;;;;;;1999.90;999.90;;;7.40;99.90;;;;;;5020362;28;20446;-78
2022/02/14 01:05:15;;;;;;;1797.57;699.23;;;7.50;99.90;;;;;;5020489;28;20795;-78
2022/02/14 01:07:43;;;;;;;1999.90;999.90;;;7.50;99.90;;;;;;5018530;28;20461;-78
2022/02/14 01:10:13;;;;;;;1999.90;999.90;;;7.50;99.90;;;;;;5017750;28;20473;-78
2022/02/14 01:12:43;;;;;;;1052.63;353.43;;;7.50;99.90;;;;;;5018672;28;20549;-78
2022/02/14 01:15:12;;;;;;;1999.90;999.90;;;7.50;99.90;;;;;;5018861;28;20454;-78
2022/02/14 01:17:41;;;;;;;1999.90;999.90;;;7.50;99.90;;;;;;5018732;28;20473;-78
2022/02/14 01:20:13;;;;;;;1999.90;999.90;;;7.50;99.90;;;;;;5018559;28;20554;-78
2022/02/14 01:22:42;;;;;;;1999.90;999.90;;;7.50;99.90;;;;;;5017820;28;20454;-77
2022/02/14 01:25:12;;;;;;;1732.10;698.87;;;7.60;99.90;;;;;;5018496;28;20459;-78
2022/02/14 01:27:43;;;;;;;1999.90;999.90;;;7.60;99.90;;;;;;5018025;28;20827;-78
2022/02/14 01:30:15;;;;;;;1999.90;999.90;;;7.60;99.90;;;;;;5018168;28;20464;-78
2022/02/14 01:32:47;;;;;;;1999.90;999.90;;;7.60;99.90;;;;;;5018271;28;20551;-78
2022/02/14 01:35:15;;;;;;;1999.90;999.90;;;7.60;99.90;;;;;;5017618;28;20452;-78
2022/02/14 01:37:43;;;;;;;1999.90;999.90;;;7.60;99.90;;;;;;5018705;28;20458;-78
2022/02/14 01:40:15;;;;;;;1999.90;999.90;;;7.60;99.90;;;;;;5017665;28;20480;-78
2022/02/14 01:42:43;;;;;;;1999.90;999.90;;;7.60;99.90;;;;;;5019148;28;20947;-78
2022/02/14 01:45:13;;;;;;;1999.90;999.90;;;7.70;99.90;;;;;;5019232;28;20446;-78
2022/02/14 01:47:41;;;;;;;1999.90;999.90;;;7.70;99.90;;;;;;5018676;28;20555;-78
2022/02/14 01:50:15;;;;;;;1999.90;999.90;;;7.70;99.90;;;;;;5017797;28;20990;-78
2022/02/14 01:52:45;;;;;;;1999.90;999.90;;;7.70;99.90;;;;;;5017653;28;20828;-78
2022/02/14 01:55:16;;;;;;;1999.90;999.90;;;7.70;99.90;;;;;;5017291;28;20504;-77
2022/02/14 01:57:44;;;;;;;1999.90;737.37;;;7.70;99.90;;;;;;5017079;28;20486;-78
2022/02/14 02:00:15;;;;;;;1999.90;999.90;;;7.70;99.90;;;;;;5017332;28;21005;-78
2022/02/14 02:02:43;;;;;;;1999.90;999.90;;;7.70;99.90;;;;;;5018933;28;20419;-78
2022/02/14 02:05:13;;;;;;;1999.90;999.90;;;7.70;99.90;;;;;;5017856;28;20457;-78
2022/02/14 02:07:42;;;;;;;1734.23;698.93;;;7.70;99.90;;;;;;5017370;28;20869;-78
2022/02/14 02:10:12;;;;;;;1999.90;999.90;;;7.70;99.90;;;;;;5018871;28;20488;-78
2022/02/14 02:12:49;;;;;;;1999.90;999.90;;;7.70;99.90;;;;;;5018848;28;20461;-78
2022/02/14 02:15:18;;;;;;;1999.90;999.90;;;7.70;99.90;;;;;;5017609;28;21015;-78
2022/02/14 02:17:46;;;;;;;1999.90;999.90;;;7.70;99.90;;;;;;5017632;28;20457;-78
2022/02/14 02:20:18;;;;;;;1999.90;999.90;;;7.80;99.90;;;;;;5018728;28;21009;-78
2022/02/14 02:22:47;;;;;;;1999.90;999.90;;;7.80;99.90;;;;;;5017068;28;20462;-78
2022/02/14 02:25:18;;;;;;;1999.90;999.90;;;7.80;99.90;;;;;;5018665;28;20544;-78
2022/02/14 02:27:46;;;;;;;1999.90;999.90;;;7.80;99.90;;;;;;5014609;28;20583;-78
2022/02/14 02:30:18;;;;;;;1551.63;689.53;;;7.80;99.90;;;;;;5016766;28;20476;-78
2022/02/14 02:32:47;;;;;;;1999.90;999.90;;;7.80;99.90;;;;;;5017046;28;20513;-78
2022/02/14 02:35:15;;;;;;;1999.90;999.90;;;7.80;99.90;;;;;;5018733;28;20460;-78
2022/02/14 02:37:44;;;;;;;1999.90;999.90;;;7.80;99.90;;;;;;5018202;28;20468;-78
2022/02/14 02:40:13;;;;;;;1999.90;999.90;;;7.90;99.90;;;;;;5017900;28;20470;-78
2022/02/14 02:42:45;;;;;;;1999.90;999.90;;;7.90;99.90;;;;;;5016706;28;20453;-78
2022/02/14 02:45:15;;;;;;;1999.90;999.90;;;7.90;99.90;;;;;;5016758;28;20543;-78
2022/02/14 02:47:45;;;;;;;1584.43;690.40;;;7.90;99.90;;;;;;5016181;28;20789;-78
2022/02/14 02:50:14;;;;;;;1999.90;999.90;;;7.90;99.90;;;;;;5016431;28;20558;-78
2022/02/14 02:52:43;;;;;;;1999.90;999.90;;;7.90;99.90;;;;;;5017923;28;20496;-78
2022/02/14 02:55:11;;;;;;;1999.90;999.90;;;7.90;99.90;;;;;;5016278;28;20494;-78
2022/02/14 02:57:39;;;;;;;1666.23;693.03;;;7.90;99.90;;;;;;5017999;28;20475;-78
2022/02/14 03:00:13;;;;;;;1999.90;999.90;;;7.90;99.90;;;;;;5016314;28;20467;-78
2022/02/14 03:02:41;;;;;;;1923.77;755.17;;;7.90;99.90;;;;;;5017615;28;20452;-78
2022/02/14 03:05:10;;;;;;;1789.63;697.47;;;8.00;99.90;;;;;;5015449;28;20444;-78
2022/02/14 03:07:38;;;;;;;1774.10;694.23;;;8.00;99.90;;;;;;5017257;28;20504;-78
2022/02/14 03:10:07;;;;;;;1844.90;700.97;;;8.00;99.90;;;;;;5016125;28;20471;-78
2022/02/14 03:12:36;;;;;;;1999.90;999.90;;;8.00;99.90;;;;;;5015826;28;20484;-78
2022/02/14 03:15:05;;;;;;;1999.90;999.90;;;8.00;99.90;;;;;;5013764;28;20577;-78
2022/02/14 03:17:34;;;;;;;1712.27;686.87;;;8.00;99.90;;;;;;5017420;28;20526;-78
2022/02/14 03:20:04;;;;;;;1790.40;693.90;;;8.00;99.90;;;;;;5016291;28;20598;-78
2022/02/14 03:22:33;;;;;;;1999.90;999.90;;;8.00;99.90;;;;;;5017537;28;20474;-78
2022/02/14 03:25:01;;;;;;;1571.10;211.03;;;8.00;99.90;;;;;;5016122;28;20536;-78
2022/02/14 03:27:32;;;;;;;1820.40;710.33;;;8.00;99.90;;;;;;5017813;28;20465;-78
2022/02/14 03:30:00;;;;;;;1893.47;145.40;;;8.00;99.90;;;;;;5015657;28;20487;-78
2022/02/14 03:32:28;;;;;;;1999.90;741.87;;;8.00;99.90;;;;;;5017159;28;20489;-78
2022/02/14 03:34:58;;;;;;;1400.33;391.70;;;8.00;99.90;;;;;;5016630;28;20480;-77
2022/02/14 03:37:26;;;;;;;1899.23;710.00;;;8.00;99.90;;;;;;5014872;28;20984;-78
2022/02/14 03:39:55;;;;;;;1999.90;999.90;;;8.00;99.90;;;;;;5031667;28;20467;-77
2022/02/14 03:42:23;;;;;;;1993.33;718.37;;;8.00;99.90;;;;;;5016850;28;20861;-77
2022/02/14 03:44:51;;;;;;;1999.90;728.00;;;8.00;99.90;;;;;;5016946;28;20438;-78
2022/02/14 03:47:19;;;;;;;1999.90;999.90;;;8.00;99.90;;;;;;5017405;28;20456;-78
2022/02/14 03:49:48;;;;;;;1840.47;727.07;;;8.00;99.90;;;;;;5016653;28;20956;-77
2022/02/14 03:52:17;;;;;;;1999.90;999.90;;;8.00;99.90;;;;;;5017018;28;20436;-78
2022/02/14 03:54:47;;;;;;;1999.90;999.90;;;8.00;99.90;;;;;;5015780;28;20446;-78
2022/02/14 03:57:15;;;;;;;1773.13;694.43;;;8.00;99.90;;;;;;5016114;28;20529;-78
2022/02/14 03:59:45;;;;;;;1999.90;999.90;;;8.00;99.90;;;;;;5015195;28;20470;-78
2022/02/14 04:02:13;;;;;;;1306.50;119.23;;;8.00;99.90;;;;;;5014615;28;20540;-77
2022/02/14 04:04:42;;;;;;;1999.90;741.33;;;8.00;99.90;;;;;;5014963;28;20486;-78
2022/02/14 04:07:10;;;;;;;1607.37;407.30;;;8.00;99.90;;;;;;5016494;28;20478;-77
2022/02/14 04:09:39;;;;;;;1999.90;999.90;;;8.00;99.90;;;;;;5014787;28;20461;-78
2022/02/14 04:12:08;;;;;;;1999.90;999.90;;;8.00;99.90;;;;;;5015934;28;20471;-78
2022/02/14 04:14:42;;;;;;;1679.20;693.57;;;8.00;99.90;;;;;;5014651;28;20466;-77
2022/02/14 04:17:12;;;;;;;1999.90;999.90;;;8.00;99.90;;;;;;5018350;28;20971;-77
2022/02/14 04:19:40;;;;;;;1999.90;999.90;;;8.00;99.90;;;;;;5019696;28;20574;-78
2022/02/14 04:22:12;;;;;;;1999.90;999.90;;;8.00;99.90;;;;;;5019744;28;20461;-78
2022/02/14 04:24:41;;;;;;;1999.90;999.90;;;8.00;99.90;;;;;;5019287;28;21018;-78
2022/02/14 04:27:09;;;;;;;1999.90;999.90;;;8.00;99.90;;;;;;5018216;28;20954;-78
2022/02/14 04:29:38;;;;;;;1999.90;999.90;;;8.00;99.90;;;;;;5018316;28;20460;-77
2022/02/14 04:32:07;;;;;;;1087.83;88.73;;;8.00;99.90;;;;;;5019918;28;20475;-77
2022/02/14 04:34:35;;;;;;;1999.90;999.90;;;8.00;99.90;;;;;;5019015;28;20573;-78
2022/02/14 04:37:04;;;;;;;1822.10;707.77;;;8.00;99.90;;;;;;5018515;28;21023;-78
2022/02/14 04:39:33;;;;;;;1561.30;688.47;;;8.00;99.90;;;;;;5018370;28;20462;-78
2022/02/14 04:42:02;;;;;;;619.87;67.97;;;8.00;99.90;;;;;;5019843;28;20896;-78
2022/02/14 04:44:31;;;;;;;1999.90;999.90;;;8.00;99.90;;;;;;5018359;28;20449;-77
2022/02/14 04:46:59;;;;;;;1581.47;685.63;;;8.00;99.90;;;;;;5019322;28;20475;-78
2022/02/14 04:49:27;;;;;;;679.33;42.63;;;8.00;99.90;;;;;;5018303;28;20486;-77
2022/02/14 04:51:55;;;;;;;1999.90;999.90;;;8.00;99.90;;;;;;5018018;28;20502;-78
2022/02/14 04:54:23;;;;;;;964.33;54.70;;;8.00;99.90;;;;;;5035374;28;21012;-78
2022/02/14 04:56:51;;;;;;;1962.40;740.80;;;8.00;99.90;;;;;;5019933;28;20445;-78
2022/02/14 04:59:21;;;;;;;1843.43;417.53;;;8.00;99.90;;;;;;5018462;28;20450;-77
2022/02/14 05:01:49;;;;;;;1647.40;132.53;;;8.00;99.90;;;;;;5017841;28;20821;-77
2022/02/14 05:04:17;;;;;;;1657.40;688.37;;;8.00;99.90;;;;;;5017815;28;20454;-78
2022/02/14 05:06:49;;;;;;;1284.70;371.47;;;8.00;99.90;;;;;;5018887;28;20446;-78
2022/02/14 05:09:17;;;;;;;1999.90;999.90;;;8.00;99.90;;;;;;5017201;28;20796;-77
2022/02/14 05:11:47;;;;;;;971.13;78.33;;;8.00;99.90;;;;;;5019076;28;20788;-78
2022/02/14 05:14:15;;;;;;;1999.90;999.90;;;8.00;99.90;;;;;;5034026;28;20473;-77
2022/02/14 05:16:45;;;;;;;1851.90;702.93;;;8.00;99.90;;;;;;5017214;28;20454;-78
2022/02/14 05:19:13;;;;;;;1999.90;999.90;;;8.00;99.90;;;;;;5017699;28;20493;-78
2022/02/14 05:21:41;;;;;;;1999.90;999.90;;;8.00;99.90;;;;;;5016832;28;20498;-78
2022/02/14 05:24:10;;;;;;;1999.90;999.90;;;8.00;99.90;;;;;;5017016;28;20449;-78
2022/02/14 05:26:38;;;;;;;1999.90;999.90;;;8.00;99.90;;;;;;5017135;28;20450;-78
2022/02/14 05:29:06;;;;;;;1801.03;158.13;;;8.00;99.90;;;;;;5016201;28;20463;-78
2022/02/14 05:31:34;;;;;;;1990.87;767.93;;;8.00;99.90;;;;;;5018146;28;20526;-79
2022/02/14 05:34:04;;;;;;;1680.27;430.23;;;8.00;99.90;;;;;;5017239;28;20572;-78
2022/02/14 05:36:32;;;;;;;1999.90;999.90;;;8.00;99.90;;;;;;5032883;28;20544;-78
2022/02/14 05:39:00;;;;;;;1999.90;999.90;;;8.00;99.90;;;;;;5018023;28;20441;-78
2022/02/14 05:41:28;;;;;;;1999.90;726.27;;;8.00;99.90;;;;;;5017692;28;21004;-78
2022/02/14 05:44:01;;;;;;;1999.90;757.20;;;8.00;99.90;;;;;;5016177;28;20477;-77
2022/02/14 05:46:29;;;;;;;1999.90;999.90;;;8.00;99.90;;;;;;5016267;28;20497;-77
2022/02/14 05:48:57;;;;;;;1270.53;377.07;;;8.00;99.90;;;;;;5016071;28;20552;-78
2022/02/14 05:51:27;;;;;;;1999.90;999.90;;;8.00;99.90;;;;;;5017401;28;20465;-77
2022/02/14 05:53:55;;;;;;;1999.90;999.90;;;8.10;99.90;;;;;;5018009;28;20527;-78
2022/02/14 05:56:23;;;;;;;1542.67;407.73;;;8.00;99.90;;;;;;5017376;28;20466;-78
2022/02/14 05:58:51;;;;;;;1168.20;373.90;;;8.00;99.90;;;;;;5013531;28;20471;-78
2022/02/14 06:01:19;;;;;;;1999.90;999.90;;;8.00;99.90;;;;;;5017055;28;20495;-78
2022/02/14 06:03:47;;;;;;;1999.90;999.90;;;8.00;99.90;;;;;;5015919;28;20457;-78
2022/02/14 06:06:15;;;;;;;1999.90;999.90;;;8.00;99.90;;;;;;5015880;28;21056;-77
2022/02/14 06:08:45;;;;;;;1999.90;999.90;;;8.00;99.90;;;;;;5015102;28;20469;-77
2022/02/14 06:11:14;;;;;;;1999.90;999.90;;;8.00;99.90;;;;;;5012789;28;20476;-77
2022/02/14 06:13:42;;;;;;;1999.90;999.90;;;8.10;99.90;;;;;;4995770;28;20454;-77
2022/02/14 06:16:11;;;;;;;1626.80;692.10;;;8.10;99.90;;;;;;4994953;28;20480;-78
2022/02/14 06:18:39;;;;;;;1999.90;999.90;;;8.10;99.90;;;;;;4995079;28;20467;-77
2022/02/14 06:21:07;;;;;;;1999.90;999.90;;;8.10;99.90;;;;;;4994547;28;20506;-77
2022/02/14 06:23:35;;;;;;;1549.50;680.23;;;8.10;99.90;;;;;;4994923;28;20454;-77
2022/02/14 06:26:06;;;;;;;1999.90;999.90;;;8.10;99.90;;;;;;4994716;28;21010;-77
2022/02/14 06:28:38;;;;;;;1999.90;999.90;;;8.10;99.90;;;;;;4995719;28;20524;-78
2022/02/14 06:31:06;;;;;;;1999.90;999.90;;;8.10;99.90;;;;;;4994319;28;20882;-77
2022/02/14 06:33:35;;;;;;;1999.90;999.90;;;8.10;99.90;;;;;;4995214;28;20453;-77
2022/02/14 06:36:04;;;;;;;1999.90;999.90;;;8.20;99.90;;;;;;4994280;28;20827;-77
2022/02/14 06:38:33;;;;;;;1999.90;999.90;;;8.10;99.90;;;;;;4994773;28;20451;-77
2022/02/14 06:41:01;;;;;;;1599.47;690.37;;;8.20;99.90;;;;;;4994785;28;20467;-77
2022/02/14 06:43:31;;;;;;;1999.90;999.90;;;8.20;99.90;;;;;;4995475;28;20458;-77
2022/02/14 06:45:59;;;;;;;1999.90;999.90;;;8.20;99.90;;;;;;4994291;28;20598;-77
2022/02/14 06:48:27;;;;;;;1999.90;999.90;;;8.20;99.90;;;;;;4996192;28;20536;-77
2022/02/14 06:50:57;;;;;;;1999.90;999.90;;;8.20;99.90;;;;;;4994892;28;20479;-77
2022/02/14 06:53:25;;;;;;;1999.90;999.90;;;8.20;99.90;;;;;;4994200;28;20451;-77
2022/02/14 06:55:56;;;;;;;1999.90;999.90;;;8.20;99.90;;;;;;4994859;28;20462;-77
2022/02/14 06:58:24;;;;;;;1999.90;999.90;;;8.20;99.90;;;;;;4994936;28;20458;-76
2022/02/14 07:00:53;;;;;;;1999.90;999.90;;;8.20;99.90;;;;;;4995643;28;20467;-77
2022/02/14 07:03:22;;;;;;;1999.90;999.90;;;8.20;99.90;;;;;;4994836;28;20977;-77
2022/02/14 07:05:51;;;;;;;1999.90;999.90;;;8.20;99.90;;;;;;4994200;28;20486;-77
2022/02/14 07:08:19;;;;;;;1999.90;999.90;;;8.20;99.90;;;;;;4995032;28;20455;-78
2022/02/14 07:10:47;;;;;;;1999.90;999.90;;;8.20;99.90;;;;;;4994089;28;20898;-77
2022/02/14 07:13:16;;;;;;;1999.90;999.90;;;8.20;99.90;;;;;;4995333;28;20931;-77
2022/02/14 07:15:45;;;;;;;1999.90;999.90;;;8.20;99.90;;;;;;4993820;28;20989;-77
2022/02/14 07:18:15;;;;;;;1999.90;999.90;;;8.20;99.90;;;;;;4993903;28;20453;-77
2022/02/14 07:20:43;;;;;;;1999.90;999.90;;;8.20;99.90;;;;;;4993633;28;20511;-78
2022/02/14 07:23:13;;;;;;;1999.90;999.90;;;8.20;99.90;;;;;;4995334;28;20846;-78
2022/02/14 07:25:49;;;;;;;1999.90;999.90;;;8.20;99.90;;;;;;4995303;28;20439;-78
2022/02/14 07:28:17;;;;;;;1999.90;999.90;;;8.20;99.90;;;;;;4995334;28;20486;-78
2022/02/14 07:30:45;;;;;;;1999.90;999.90;;;8.20;99.90;;;;;;4994037;28;20486;-77
2022/02/14 07:33:14;;;;;;;1999.90;999.90;;;8.20;99.90;;;;;;4995112;28;20902;-77
2022/02/14 07:35:43;;;;;;;1999.90;999.90;;;8.20;99.90;;;;;;4993591;28;20474;-77
2022/02/14 07:38:11;;;;;;;1999.90;999.90;;;8.20;99.90;;;;;;4993744;28;20542;-77
2022/02/14 07:40:39;;;;;;;1999.90;999.90;;;8.20;99.90;;;;;;4993567;28;20470;-77
2022/02/14 07:43:07;;;;;;;1999.90;999.90;;;8.30;99.90;;;;;;4994702;28;20455;-77
2022/02/14 07:45:36;;;;;;;1999.90;999.90;;;8.30;99.90;;;;;;4994930;28;20461;-77
2022/02/14 07:48:05;;;;;;;1999.90;999.90;;;8.30;99.90;;;;;;4994809;28;20468;-77
2022/02/14 07:50:45;;;;;;;;;;;;;;;;;;;;;
2022/02/14 07:53:16;;;;;;;1999.90;999.90;;;8.30;99.90;;;;;;4993101;28;20470;-77
2022/02/14 07:55:44;;;;;;;1999.90;999.90;;;8.40;99.90;;;;;;4994666;28;21009;-77
2022/02/14 07:58:12;;;;;;;1555.57;679.90;;;8.40;99.90;;;;;;4993338;28;20823;-77
2022/02/14 08:00:42;;;;;;;1999.90;999.90;;;8.40;99.90;;;;;;4993418;28;20620;-78
2022/02/14 08:03:10;;;;;;;1999.90;999.90;;;8.40;99.90;;;;;;4993517;28;20455;-77
2022/02/14 08:05:40;;;;;;;1999.90;999.90;;;8.40;99.90;;;;;;4993619;28;20456;-77
2022/02/14 08:08:08;;;;;;;1999.90;999.90;;;8.50;99.90;;;;;;4994487;28;20480;-78
2022/02/14 08:10:53;;;;;;;1999.90;999.90;;;8.50;99.90;;;;;;4993268;28;20471;-77
2022/02/14 08:13:22;;;;;;;1999.90;999.90;;;8.50;99.90;;;;;;4994553;28;20487;-77
2022/02/14 08:15:50;;;;;;;1999.90;999.90;;;8.60;99.90;;;;;;4993363;28;20571;-78
2022/02/14 08:18:18;;;;;;;1999.90;999.90;;;8.60;99.90;;;;;;4993447;28;20476;-78
2022/02/14 08:20:48;;;;;;;1999.90;999.90;;;8.70;99.90;;;;;;4993562;28;20473;-77
2022/02/14 08:23:16;;;;;;;1999.90;999.90;;;8.70;99.90;;;;;;4993819;28;20529;-77
2022/02/14 08:25:44;;;;;;;1999.90;999.90;;;8.70;99.90;;;;;;4993444;28;20444;-78
2022/02/14 08:28:12;;;;;;;1999.90;999.90;;;8.80;99.90;;;;;;4994645;28;20452;-78
2022/02/14 08:30:40;;;;;;;1999.90;999.90;;;8.80;99.90;;;;;;4994775;28;20564;-78
2022/02/14 08:33:10;;;;;;;1999.90;999.90;;;8.90;99.90;;;;;;4994422;28;20454;-77
2022/02/14 08:35:38;;;;;;;1999.90;999.90;;;8.90;99.90;;;;;;4993459;28;20562;-78
2022/02/14 08:38:08;;;;;;;1999.90;999.90;;;9.00;99.90;;;;;;4992882;28;20487;-77
2022/02/14 08:40:37;;;;;;;1999.90;999.90;;;9.00;99.90;;;;;;4994642;28;20541;-77
2022/02/14 08:43:05;;;;;;;1999.90;999.90;;;9.10;99.90;;;;;;4993409;28;20542;-77
2022/02/14 08:45:53;;;;;;;1999.90;999.90;;;9.20;99.90;;;;;;4993050;28;20930;-77
2022/02/14 08:48:21;;;;;;;1999.90;999.90;;;9.20;99.90;;;;;;4993637;28;20444;-77
2022/02/14 08:50:50;;;;;;;1999.90;999.90;;;9.30;99.90;;;;;;4994127;28;20664;-77
2022/02/14 08:53:23;;;;;;;1999.90;999.90;;;9.40;99.90;;;;;;4994692;28;20829;-77
2022/02/14 08:55:51;;;;;;;1999.90;999.90;;;9.40;99.90;;;;;;4994298;28;20543;-77
2022/02/14 08:58:22;;;;;;;1999.90;999.90;;;9.50;99.90;;;;;;4994859;28;20824;-78
2022/02/14 09:00:50;;;;;;;1999.90;999.90;;;9.50;99.90;;;;;;4992933;28;20472;-77
2022/02/14 09:03:18;;;;;;;1999.90;999.90;;;9.50;99.90;;;;;;4994598;28;20452;-77
2022/02/14 09:05:46;;;;;;;1999.90;999.90;;;9.60;99.90;;;;;;4995992;28;20516;-77
2022/02/14 09:08:15;;;;;;;1787.30;693.33;;;9.60;99.90;;;;;;4996472;28;20484;-77
2022/02/14 09:10:44;;;;;;;1999.90;999.90;;;9.70;99.90;;;;;;4996978;28;20484;-78
2022/02/14 09:13:12;;;;;;;1999.90;999.90;;;9.80;99.90;;;;;;4997635;28;20516;-78
2022/02/14 09:15:40;;;;;;;1999.90;207.63;;;9.90;99.90;;;;;;4996007;28;20511;-77
2022/02/14 09:18:09;;;;;;;1999.90;999.90;;;9.90;99.90;;;;;;4997554;28;20448;-77
2022/02/14 09:20:38;;;;;;;1999.90;999.90;;;10.00;99.90;;;;;;4996009;28;20472;-77
2022/02/14 09:23:07;;;;;;;1999.90;827.87;;;10.10;99.90;;;;;;4997729;28;20786;-77
2022/02/14 09:25:36;;;;;;;1999.90;375.03;;;10.20;99.90;;;;;;4997183;28;20435;-77
2022/02/14 09:28:06;;;;;;;1999.90;999.90;;;10.20;99.90;;;;;;4996310;28;20452;-78
2022/02/14 09:30:34;;;;;;;6.60;4.63;;;10.30;99.90;;;;;;4996082;28;20986;-77
2022/02/14 09:33:02;;;;;;;5.70;3.87;;;10.40;99.90;;;;;;4997341;28;20559;-77
2022/02/14 09:35:30;;;;;;;6.47;4.23;;;10.40;99.90;;;;;;4996727;28;20464;-77
2022/02/14 09:38:02;;;;;;;4.73;2.80;;;10.50;99.90;;;;;;4997829;28;20437;-78
2022/02/14 09:40:34;;;;;;;4.90;4.00;;;10.50;99.90;;;;;;4996731;28;20496;-77
2022/02/14 09:43:13;;;;;;;5.90;3.20;;;10.50;99.90;;;;;;4997113;28;20484;-77
2022/02/14 09:45:42;;;;;;;5.77;2.83;;;10.60;99.90;;;;;;4996771;28;20964;-77
2022/02/14 09:48:14;;;;;;;5.17;3.60;;;10.70;99.90;;;;;;4998326;28;20505;-78
2022/02/14 09:50:46;;;;;;;5.23;3.77;;;10.70;99.90;;;;;;4996874;28;20480;-77
2022/02/14 09:53:18;;;;;;;4.53;3.23;;;10.80;99.90;;;;;;4997285;28;20503;-77
2022/02/14 09:55:47;;;;;;;25.87;8.80;;;10.80;99.90;;;;;;4997163;28;20456;-77
2022/02/14 09:58:17;;;;;;;7.03;3.33;;;10.80;99.90;;;;;;4997285;28;20467;-78
2022/02/14 10:00:46;;;;;;;6.03;3.57;;;10.90;99.90;;;;;;5000232;28;20966;-78
2022/02/14 10:03:16;;;;;;;4.20;2.80;;;10.90;99.90;;;;;;4998191;28;20444;-78
2022/02/14 10:05:49;;;;;;;5.47;3.53;;;11.00;99.90;;;;;;4998102;28;20468;-78
2022/02/14 10:08:22;;;;;;;5.80;3.07;;;11.00;99.90;;;;;;4998338;28;20484;-78
2022/02/14 10:10:53;;;;;;;6.13;2.70;;;11.00;99.90;;;;;;4996848;28;20472;-78
2022/02/14 10:13:34;;;;;;;5.37;3.50;;;11.10;99.90;;;;;;4996994;28;20544;-77
2022/02/14 10:16:07;;;;;;;4.93;2.70;;;11.10;99.90;;;;;;4999173;28;20452;-78
2022/02/14 10:18:37;;;;;;;5.37;2.53;;;11.20;99.90;;;;;;4999034;28;20467;-78
2022/02/14 10:21:22;;;;;;;5.10;3.10;;;11.20;99.90;;;;;;4998175;28;20479;-77
2022/02/14 10:24:07;;;;;;;4.47;3.23;;;11.30;99.90;;;;;;4998510;28;20476;-78
2022/02/14 10:26:37;;;;;;;4.83;3.10;;;11.30;99.90;;;;;;4999917;28;20519;-78
2022/02/14 10:29:17;;;;;;;5.30;3.20;;;11.40;99.90;;;;;;4998108;28;20497;-78
2022/02/14 10:31:47;;;;;;;5.20;3.00;;;11.40;99.90;;;;;;4997892;28;20498;-78
2022/02/14 10:34:19;;;;;;;4.30;2.73;;;11.50;99.90;;;;;;4999772;28;20452;-78
2022/02/14 10:36:50;;;;;;;4.20;2.70;;;11.50;99.90;;;;;;4997554;28;20500;-78
2022/02/14 10:39:22;;;;;;;4.63;3.03;;;11.50;99.90;;;;;;4998775;28;20791;-78
2022/02/14 10:41:56;;;;;;;6.23;2.77;;;11.50;99.90;;;;;;4998006;28;20534;-78
2022/02/14 10:47:20;;;;;;;4.93;2.40;;;11.60;99.90;;;;;;4997564;28;20440;-78
2022/02/14 10:50:00;;;;;;;5.23;3.00;;;11.70;99.90;;;;;;4997591;28;20469;-78
2022/02/14 10:52:34;;;;;;;4.53;2.80;;;11.70;99.90;;;;;;4996165;28;20448;-78
2022/02/14 10:55:04;;;;;;;5.20;3.10;;;11.70;99.90;;;;;;4995812;28;20515;-77
2022/02/14 10:57:35;;;;;;;9.17;3.23;;;11.70;99.90;;;;;;4998986;28;20831;-78
2022/02/14 11:00:08;;;;;;;3.83;2.93;;;11.70;99.90;;;;;;4997553;28;20512;-78
2022/02/14 11:02:37;;;;;;;6.33;3.00;;;11.70;99.90;;;;;;4999110;28;20437;-78
2022/02/14 11:05:07;;;;;;;6.53;4.70;;;11.70;99.90;;;;;;4999480;28;20437;-78
2022/02/14 11:07:37;;;;;;;4.90;2.40;;;11.70;99.90;;;;;;4997771;28;20449;-78
2022/02/14 11:10:10;;;;;;;4.80;3.33;;;11.70;99.90;;;;;;4998736;28;20449;-78
2022/02/14 11:12:41;;;;;;;6.00;3.20;;;11.70;99.90;;;;;;4997386;28;20441;-78
2022/02/14 11:15:11;;;;;;;6.17;5.07;;;11.80;99.90;;;;;;4998602;28;20790;-78
2022/02/14 11:17:44;;;;;;;5.57;3.33;;;11.80;99.90;;;;;;4997028;28;20475;-78
2022/02/14 11:20:14;;;;;;;5.63;4.50;;;11.80;99.90;;;;;;4997326;28;20493;-78
2022/02/14 11:22:44;;;;;;;5.93;4.67;;;11.80;99.90;;;;;;4997469;28;20528;-78
2022/02/14 11:25:22;;;;;;;7.17;3.77;;;11.90;99.90;;;;;;4998295;28;20520;-78
2022/02/14 11:27:58;;;;;;;4.43;3.60;;;11.90;99.90;;;;;;4999677;28;20507;-78
2022/02/14 11:30:29;;;;;;;6.50;4.97;;;11.90;99.90;;;;;;4996682;28;20566;-78
2022/02/14 11:33:06;;;;;;;5.50;3.83;;;11.90;99.90;;;;;;4997233;28;20453;-77
2022/02/14 11:35:34;;;;;;;18.93;10.77;;;11.90;99.90;;;;;;4994673;28;20911;-77
2022/02/14 11:38:06;;;;;;;5.93;5.37;;;11.90;99.90;;;;;;4993439;28;20489;-77
2022/02/14 11:40:38;;;;;;;21.70;13.63;;;11.90;99.90;;;;;;4992894;28;20567;-77
2022/02/14 11:43:18;;;;;;;69.63;19.43;;;11.90;99.90;;;;;;4994195;28;20443;-77
2022/02/14 11:46:18;;;;;;;8.23;5.97;;;11.90;99.90;;;;;;4993220;28;20529;-77
2022/02/14 11:48:52;;;;;;;34.67;17.90;;;11.90;99.90;;;;;;4993207;28;20537;-77
2022/02/14 11:51:24;;;;;;;30.03;15.47;;;11.90;99.90;;;;;;4994386;28;20559;-77
2022/02/14 11:53:58;;;;;;;16.90;14.27;;;11.90;99.90;;;;;;4993312;28;20536;-77
2022/02/14 11:56:32;;;;;;;16.47;10.77;;;12.00;99.90;;;;;;4993372;28;20899;-77
2022/02/14 11:59:11;;;;;;;57.83;32.83;;;12.00;99.90;;;;;;4994782;28;20430;-77
2022/02/14 12:02:01;;;;;;;131.53;27.73;;;12.00;99.90;;;;;;4994185;28;20460;-77
2022/02/14 12:04:44;;;;;;;44.07;32.73;;;12.00;99.90;;;;;;4994340;28;20425;-77
2022/02/14 12:07:34;;;;;;;228.43;58.50;;;12.00;99.90;;;;;;4993840;28;20530;-77
2022/02/14 12:10:25;;;;;;;260.20;75.70;;;12.10;99.90;;;;;;4993200;28;20508;-77
2022/02/14 12:13:06;;;;;;;1645.83;336.40;;;12.00;99.90;;;;;;4993134;28;20441;-77
2022/02/14 12:21:16;;;;;;;1999.90;999.90;;;12.00;99.90;;;;;;4993876;28;20471;-77
2022/02/14 12:24:17;;;;;;;1831.57;709.17;;;11.90;99.90;;;;;;4992377;28;20445;-77
2022/02/14 12:26:52;;;;;;;1999.90;420.47;;;11.90;99.90;;;;;;4992844;28;20441;-77
2022/02/14 12:29:39;;;;;;;1999.90;726.77;;;11.80;99.90;;;;;;4992604;28;20532;-77
2022/02/14 12:32:16;;;;;;;1999.90;716.63;;;11.70;99.90;;;;;;4994099;28;20448;-77
2022/02/14 12:34:46;;;;;;;1999.90;730.93;;;11.70;99.90;;;;;;4992702;28;20510;-77
2022/02/14 12:37:17;;;;;;;1999.90;765.23;;;11.70;99.90;;;;;;4992608;28;20561;-77
2022/02/14 12:39:49;;;;;;;1999.90;703.97;;;11.70;99.90;;;;;;4996209;28;20474;-77